Mc Murray, Pennsylvania
Current Conditions -  °F | °C
As of 3:55 PM on Saturday 25 Oct 2014 (Local Time) from KAFJ Reporting Station
Clear Clear  
Wind Chill: 64°   Ceiling: Unl
Heat Index: 64°   Visibility: 10mi
Dew Point: 48°   Wind: 13mph
Humidity: 56%   Direction: 230°SW
Pressure: 29.83"   Gusts: 23mph
Location:  40.274°N, 80.1538°W
Report Text: KAFJ 251955Z AUTO 23011G20KT 10SM CLR 18/09 A2983 RMK AO1
Loading
Personal Weather Stations






























Interactive Weather Map
Tropical Storm Tracking
New forecast layout! Learn more

10-Day Weather Forecast

Advertisements
Track Severe Weather on mobile